Nossa Senhora da Gloria, Brazil
Current Conditions -  °F | °C
As of 10:00 PM on Wednesday 17 Dec 2014 (Local Time) from SBAR Reporting Station
Clear Clear  
Wind Chill: 77°   Ceiling: Unl
Heat Index: 78°   Visibility: 6mi
Dew Point: 72°   Wind: 10mph
Humidity: 83%   Direction: 90°E
Pressure: 29.88"   Gusts: NA
Location:  10.22°S, 37.42°W
Report Text: SBAR 180100Z 09009KT CAVOK 25/22 Q1012
Loading
Personal Weather Stations






























Interactive Weather Map New forecast layout! Learn more

10-Day Weather Forecast

Advertisements
Track Severe Weather on mobile